sensor_id;sensor_type;location;lat;lon;timestamp;P1;durP1;ratioP1;P2;durP2;ratioP2
77078;SDS011;66004;55.096;38.760;2023-05-10T00:01:52;7.63;;;3.53;;
77078;SDS011;66004;55.096;38.760;2023-05-10T00:04:17;8.40;;;3.80;;
77078;SDS011;66004;55.096;38.760;2023-05-10T00:06:43;5.78;;;3.35;;
77078;SDS011;66004;55.096;38.760;2023-05-10T00:09:08;6.07;;;3.60;;
77078;SDS011;66004;55.096;38.760;2023-05-10T00:11:34;5.80;;;3.90;;
77078;SDS011;66004;55.096;38.760;2023-05-10T00:13:59;7.93;;;3.78;;
77078;SDS011;66004;55.096;38.760;2023-05-10T00:16:25;8.57;;;3.50;;
77078;SDS011;66004;55.096;38.760;2023-05-10T00:18:50;8.90;;;3.92;;
77078;SDS011;66004;55.096;38.760;2023-05-10T00:21:16;6.00;;;3.22;;
77078;SDS011;66004;55.096;38.760;2023-05-10T00:23:41;6.13;;;3.33;;
77078;SDS011;66004;55.096;38.760;2023-05-10T00:26:07;5.55;;;2.97;;
77078;SDS011;66004;55.096;38.760;2023-05-10T00:28:32;6.30;;;3.42;;
77078;SDS011;66004;55.096;38.760;2023-05-10T00:30:58;9.57;;;3.33;;
77078;SDS011;66004;55.096;38.760;2023-05-10T00:33:23;6.30;;;3.00;;
77078;SDS011;66004;55.096;38.760;2023-05-10T00:35:49;5.70;;;3.10;;
77078;SDS011;66004;55.096;38.760;2023-05-10T00:38:14;5.53;;;2.97;;
77078;SDS011;66004;55.096;38.760;2023-05-10T00:40:40;6.43;;;3.47;;
77078;SDS011;66004;55.096;38.760;2023-05-10T00:43:06;4.00;;;2.90;;
77078;SDS011;66004;55.096;38.760;2023-05-10T00:45:32;6.85;;;2.75;;
77078;SDS011;66004;55.096;38.760;2023-05-10T00:47:58;3.80;;;2.60;;
77078;SDS011;66004;55.096;38.760;2023-05-10T00:50:26;6.15;;;2.97;;
77078;SDS011;66004;55.096;38.760;2023-05-10T00:52:51;5.50;;;3.03;;
77078;SDS011;66004;55.096;38.760;2023-05-10T00:55:17;5.38;;;3.10;;
77078;SDS011;66004;55.096;38.760;2023-05-10T00:57:43;5.60;;;3.13;;
77078;SDS011;66004;55.096;38.760;2023-05-10T01:00:09;6.60;;;3.40;;
77078;SDS011;66004;55.096;38.760;2023-05-10T01:02:36;9.00;;;3.47;;
77078;SDS011;66004;55.096;38.760;2023-05-10T01:05:02;6.22;;;3.00;;
77078;SDS011;66004;55.096;38.760;2023-05-10T01:07:30;8.93;;;3.33;;
77078;SDS011;66004;55.096;38.760;2023-05-10T01:09:56;6.35;;;3.33;;
77078;SDS011;66004;55.096;38.760;2023-05-10T01:12:22;4.90;;;2.88;;
77078;SDS011;66004;55.096;38.760;2023-05-10T01:14:48;4.85;;;2.72;;
77078;SDS011;66004;55.096;38.760;2023-05-10T01:17:14;5.93;;;3.13;;
77078;SDS011;66004;55.096;38.760;2023-05-10T01:19:41;6.47;;;3.45;;
77078;SDS011;66004;55.096;38.760;2023-05-10T01:35:51;8.60;;;4.40;;
77078;SDS011;66004;55.096;38.760;2023-05-10T01:38:47;9.40;;;4.85;;
77078;SDS011;66004;55.096;38.760;2023-05-10T01:41:25;14.88;;;5.30;;
77078;SDS011;66004;55.096;38.760;2023-05-10T01:46:28;7.82;;;3.60;;
77078;SDS011;66004;55.096;38.760;2023-05-10T01:49:02;7.10;;;3.65;;
77078;SDS011;66004;55.096;38.760;2023-05-10T01:51:39;8.60;;;3.70;;
77078;SDS011;66004;55.096;38.760;2023-05-10T01:54:11;11.57;;;4.50;;
77078;SDS011;66004;55.096;38.760;2023-05-10T01:56:38;8.40;;;4.22;;
77078;SDS011;66004;55.096;38.760;2023-05-10T01:59:06;7.88;;;4.00;;
77078;SDS011;66004;55.096;38.760;2023-05-10T02:01:38;7.13;;;4.10;;
77078;SDS011;66004;55.096;38.760;2023-05-10T02:04:06;6.90;;;3.97;;
77078;SDS011;66004;55.096;38.760;2023-05-10T02:06:33;7.85;;;4.13;;
77078;SDS011;66004;55.096;38.760;2023-05-10T02:09:01;6.80;;;3.35;;
77078;SDS011;66004;55.096;38.760;2023-05-10T02:11:28;7.15;;;3.80;;
77078;SDS011;66004;55.096;38.760;2023-05-10T02:13:55;12.27;;;4.22;;
77078;SDS011;66004;55.096;38.760;2023-05-10T02:16:23;11.73;;;4.25;;
77078;SDS011;66004;55.096;38.760;2023-05-10T02:18:51;7.25;;;4.35;;
77078;SDS011;66004;55.096;38.760;2023-05-10T02:21:17;9.40;;;4.97;;
77078;SDS011;66004;55.096;38.760;2023-05-10T02:23:45;9.60;;;4.72;;
77078;SDS011;66004;55.096;38.760;2023-05-10T02:26:13;10.15;;;4.18;;
77078;SDS011;66004;55.096;38.760;2023-05-10T02:28:40;7.50;;;4.63;;
77078;SDS011;66004;55.096;38.760;2023-05-10T02:31:08;9.95;;;4.90;;
77078;SDS011;66004;55.096;38.760;2023-05-10T02:33:36;14.10;;;4.93;;
77078;SDS011;66004;55.096;38.760;2023-05-10T02:36:04;14.07;;;4.55;;
77078;SDS011;66004;55.096;38.760;2023-05-10T02:38:32;10.88;;;4.72;;
77078;SDS011;66004;55.096;38.760;2023-05-10T02:40:59;12.35;;;5.20;;
77078;SDS011;66004;55.096;38.760;2023-05-10T02:43:26;8.13;;;4.43;;
77078;SDS011;66004;55.096;38.760;2023-05-10T02:45:55;9.45;;;4.47;;
77078;SDS011;66004;55.096;38.760;2023-05-10T02:48:20;11.57;;;5.53;;
77078;SDS011;66004;55.096;38.760;2023-05-10T02:52:16;11.73;;;5.60;;
77078;SDS011;66004;55.096;38.760;2023-05-10T02:54:48;10.23;;;4.85;;
77078;SDS011;66004;55.096;38.760;2023-05-10T02:57:16;11.40;;;5.32;;
77078;SDS011;66004;55.096;38.760;2023-05-10T02:59:47;10.18;;;5.45;;
77078;SDS011;66004;55.096;38.760;2023-05-10T03:02:12;13.18;;;4.93;;
77078;SDS011;66004;55.096;38.760;2023-05-10T03:04:38;8.93;;;4.97;;
77078;SDS011;66004;55.096;38.760;2023-05-10T03:07:04;12.55;;;5.57;;
77078;SDS011;66004;55.096;38.760;2023-05-10T03:09:30;16.67;;;8.07;;
77078;SDS011;66004;55.096;38.760;2023-05-10T03:17:00;23.45;;;10.65;;
77078;SDS011;66004;55.096;38.760;2023-05-10T03:19:39;23.02;;;9.80;;
77078;SDS011;66004;55.096;38.760;2023-05-10T03:22:12;19.88;;;9.25;;
77078;SDS011;66004;55.096;38.760;2023-05-10T03:24:43;23.98;;;10.18;;
77078;SDS011;66004;55.096;38.760;2023-05-10T03:27:10;19.25;;;8.82;;
77078;SDS011;66004;55.096;38.760;2023-05-10T03:29:37;13.93;;;7.68;;
77078;SDS011;66004;55.096;38.760;2023-05-10T03:32:04;18.67;;;7.25;;
77078;SDS011;66004;55.096;38.760;2023-05-10T03:34:30;17.38;;;9.07;;
77078;SDS011;66004;55.096;38.760;2023-05-10T03:36:59;10.98;;;5.10;;
77078;SDS011;66004;55.096;38.760;2023-05-10T03:39:24;9.40;;;4.88;;
77078;SDS011;66004;55.096;38.760;2023-05-10T03:41:50;12.13;;;4.60;;
77078;SDS011;66004;55.096;38.760;2023-05-10T03:44:15;15.70;;;5.63;;
77078;SDS011;66004;55.096;38.760;2023-05-10T03:49:06;15.25;;;6.43;;
77078;SDS011;66004;55.096;38.760;2023-05-10T03:51:32;20.30;;;6.38;;
77078;SDS011;66004;55.096;38.760;2023-05-10T03:53:57;19.33;;;8.48;;
77078;SDS011;66004;55.096;38.760;2023-05-10T03:56:23;20.65;;;7.68;;
77078;SDS011;66004;55.096;38.760;2023-05-10T03:58:48;22.83;;;6.70;;
77078;SDS011;66004;55.096;38.760;2023-05-10T04:01:14;17.27;;;6.25;;
77078;SDS011;66004;55.096;38.760;2023-05-10T04:06:05;19.58;;;6.72;;
77078;SDS011;66004;55.096;38.760;2023-05-10T04:08:32;15.07;;;5.85;;
77078;SDS011;66004;55.096;38.760;2023-05-10T04:13:35;12.45;;;5.40;;
77078;SDS011;66004;55.096;38.760;2023-05-10T04:18:27;14.73;;;5.50;;
77078;SDS011;66004;55.096;38.760;2023-05-10T04:20:52;15.13;;;5.80;;
77078;SDS011;66004;55.096;38.760;2023-05-10T04:25:43;10.48;;;4.18;;
77078;SDS011;66004;55.096;38.760;2023-05-10T04:30:34;14.15;;;4.43;;
77078;SDS011;66004;55.096;38.760;2023-05-10T04:33:00;7.18;;;4.28;;
77078;SDS011;66004;55.096;38.760;2023-05-10T04:35:26;11.15;;;4.85;;
77078;SDS011;66004;55.096;38.760;2023-05-10T04:37:53;11.65;;;4.63;;
77078;SDS011;66004;55.096;38.760;2023-05-10T04:42:44;7.03;;;4.30;;
77078;SDS011;66004;55.096;38.760;2023-05-10T04:45:10;12.27;;;3.70;;
77078;SDS011;66004;55.096;38.760;2023-05-10T04:50:02;9.38;;;3.40;;
77078;SDS011;66004;55.096;38.760;2023-05-10T04:52:28;8.43;;;3.75;;
77078;SDS011;66004;55.096;38.760;2023-05-10T04:54:54;9.75;;;4.20;;
77078;SDS011;66004;55.096;38.760;2023-05-10T04:59:44;7.82;;;4.00;;
77078;SDS011;66004;55.096;38.760;2023-05-10T05:02:10;7.75;;;4.03;;
77078;SDS011;66004;55.096;38.760;2023-05-10T05:04:36;8.13;;;3.90;;
77078;SDS011;66004;55.096;38.760;2023-05-10T05:07:01;14.93;;;4.53;;
77078;SDS011;66004;55.096;38.760;2023-05-10T05:09:27;15.75;;;4.50;;
77078;SDS011;66004;55.096;38.760;2023-05-10T05:11:52;14.63;;;4.38;;
77078;SDS011;66004;55.096;38.760;2023-05-10T05:14:18;12.10;;;4.00;;
77078;SDS011;66004;55.096;38.760;2023-05-10T05:16:45;10.77;;;4.40;;
77078;SDS011;66004;55.096;38.760;2023-05-10T05:19:11;8.40;;;4.22;;
77078;SDS011;66004;55.096;38.760;2023-05-10T05:21:37;8.75;;;4.15;;
77078;SDS011;66004;55.096;38.760;2023-05-10T05:24:02;9.15;;;4.10;;
77078;SDS011;66004;55.096;38.760;2023-05-10T05:26:28;9.32;;;4.20;;
77078;SDS011;66004;55.096;38.760;2023-05-10T05:28:54;7.05;;;3.72;;
77078;SDS011;66004;55.096;38.760;2023-05-10T05:31:20;10.23;;;3.92;;
77078;SDS011;66004;55.096;38.760;2023-05-10T05:33:45;9.32;;;4.22;;
77078;SDS011;66004;55.096;38.760;2023-05-10T05:36:11;13.05;;;4.65;;
77078;SDS011;66004;55.096;38.760;2023-05-10T05:38:36;9.70;;;4.05;;
77078;SDS011;66004;55.096;38.760;2023-05-10T05:41:02;8.90;;;3.80;;
77078;SDS011;66004;55.096;38.760;2023-05-10T05:43:28;6.85;;;3.58;;
77078;SDS011;66004;55.096;38.760;2023-05-10T05:45:53;9.73;;;3.92;;
77078;SDS011;66004;55.096;38.760;2023-05-10T05:48:19;8.20;;;3.90;;
77078;SDS011;66004;55.096;38.760;2023-05-10T05:50:45;10.80;;;4.43;;
77078;SDS011;66004;55.096;38.760;2023-05-10T05:53:11;12.00;;;4.43;;
77078;SDS011;66004;55.096;38.760;2023-05-10T05:55:36;14.95;;;5.47;;
77078;SDS011;66004;55.096;38.760;2023-05-10T05:58:02;19.15;;;6.25;;
77078;SDS011;66004;55.096;38.760;2023-05-10T06:00:28;8.68;;;4.53;;
77078;SDS011;66004;55.096;38.760;2023-05-10T06:02:53;8.43;;;4.38;;
77078;SDS011;66004;55.096;38.760;2023-05-10T06:05:19;10.95;;;4.13;;
77078;SDS011;66004;55.096;38.760;2023-05-10T06:07:45;9.00;;;4.10;;
77078;SDS011;66004;55.096;38.760;2023-05-10T06:10:11;15.30;;;4.35;;
77078;SDS011;66004;55.096;38.760;2023-05-10T06:12:37;9.68;;;4.05;;
77078;SDS011;66004;55.096;38.760;2023-05-10T06:15:03;7.20;;;4.22;;
77078;SDS011;66004;55.096;38.760;2023-05-10T06:17:29;14.70;;;4.88;;
77078;SDS011;66004;55.096;38.760;2023-05-10T06:19:54;8.23;;;4.28;;
77078;SDS011;66004;55.096;38.760;2023-05-10T06:22:20;9.18;;;4.50;;
77078;SDS011;66004;55.096;38.760;2023-05-10T06:24:48;7.78;;;4.13;;
77078;SDS011;66004;55.096;38.760;2023-05-10T06:27:14;8.13;;;3.80;;
77078;SDS011;66004;55.096;38.760;2023-05-10T06:29:43;11.52;;;3.70;;
77078;SDS011;66004;55.096;38.760;2023-05-10T06:32:08;6.20;;;3.38;;
77078;SDS011;66004;55.096;38.760;2023-05-10T06:34:34;11.85;;;4.07;;
77078;SDS011;66004;55.096;38.760;2023-05-10T06:36:59;9.82;;;3.58;;
77078;SDS011;66004;55.096;38.760;2023-05-10T06:39:25;5.43;;;3.20;;
77078;SDS011;66004;55.096;38.760;2023-05-10T06:41:50;4.82;;;2.85;;
77078;SDS011;66004;55.096;38.760;2023-05-10T06:44:16;7.75;;;3.25;;
77078;SDS011;66004;55.096;38.760;2023-05-10T06:46:42;7.03;;;3.40;;
77078;SDS011;66004;55.096;38.760;2023-05-10T06:49:07;8.32;;;3.08;;
77078;SDS011;66004;55.096;38.760;2023-05-10T06:51:33;4.50;;;2.15;;
77078;SDS011;66004;55.096;38.760;2023-05-10T06:53:58;4.57;;;1.83;;
77078;SDS011;66004;55.096;38.760;2023-05-10T06:56:24;5.03;;;2.75;;
77078;SDS011;66004;55.096;38.760;2023-05-10T06:58:49;6.93;;;2.50;;
77078;SDS011;66004;55.096;38.760;2023-05-10T07:01:15;4.80;;;2.92;;
77078;SDS011;66004;55.096;38.760;2023-05-10T07:03:40;5.82;;;2.80;;
77078;SDS011;66004;55.096;38.760;2023-05-10T07:06:06;8.27;;;2.20;;
77078;SDS011;66004;55.096;38.760;2023-05-10T07:08:35;5.10;;;1.60;;
77078;SDS011;66004;55.096;38.760;2023-05-10T07:11:04;3.53;;;1.60;;
77078;SDS011;66004;55.096;38.760;2023-05-10T07:13:32;2.75;;;1.05;;
77078;SDS011;66004;55.096;38.760;2023-05-10T07:15:59;2.25;;;1.05;;
77078;SDS011;66004;55.096;38.760;2023-05-10T07:18:25;1.50;;;0.90;;
77078;SDS011;66004;55.096;38.760;2023-05-10T07:20:51;2.70;;;1.00;;
77078;SDS011;66004;55.096;38.760;2023-05-10T07:23:17;1.50;;;0.90;;
77078;SDS011;66004;55.096;38.760;2023-05-10T07:25:49;1.55;;;0.60;;
77078;SDS011;66004;55.096;38.760;2023-05-10T07:28:17;0.95;;;0.60;;
77078;SDS011;66004;55.096;38.760;2023-05-10T07:30:43;10.25;;;1.08;;
77078;SDS011;66004;55.096;38.760;2023-05-10T07:33:09;1.50;;;1.10;;
77078;SDS011;66004;55.096;38.760;2023-05-10T07:35:36;2.65;;;1.10;;
77078;SDS011;66004;55.096;38.760;2023-05-10T07:38:02;11.18;;;1.60;;
77078;SDS011;66004;55.096;38.760;2023-05-10T07:40:28;3.08;;;1.17;;
77078;SDS011;66004;55.096;38.760;2023-05-10T07:42:54;2.42;;;1.30;;
77078;SDS011;66004;55.096;38.760;2023-05-10T07:45:23;3.42;;;1.33;;
77078;SDS011;66004;55.096;38.760;2023-05-10T07:47:49;9.93;;;1.40;;
77078;SDS011;66004;55.096;38.760;2023-05-10T07:50:15;8.57;;;1.40;;
77078;SDS011;66004;55.096;38.760;2023-05-10T07:52:40;2.95;;;1.00;;
77078;SDS011;66004;55.096;38.760;2023-05-10T07:55:06;5.22;;;1.50;;
77078;SDS011;66004;55.096;38.760;2023-05-10T07:57:33;4.95;;;1.50;;
77078;SDS011;66004;55.096;38.760;2023-05-10T07:59:59;2.13;;;1.42;;
77078;SDS011;66004;55.096;38.760;2023-05-10T08:02:25;3.67;;;1.58;;
77078;SDS011;66004;55.096;38.760;2023-05-10T08:04:50;3.10;;;1.48;;
77078;SDS011;66004;55.096;38.760;2023-05-10T08:07:16;2.25;;;1.55;;
77078;SDS011;66004;55.096;38.760;2023-05-10T08:09:42;3.35;;;1.60;;
77078;SDS011;66004;55.096;38.760;2023-05-10T08:12:07;4.30;;;1.58;;
77078;SDS011;66004;55.096;38.760;2023-05-10T08:14:33;5.38;;;1.63;;
77078;SDS011;66004;55.096;38.760;2023-05-10T08:16:59;3.20;;;1.33;;
77078;SDS011;66004;55.096;38.760;2023-05-10T08:19:24;2.15;;;1.58;;
77078;SDS011;66004;55.096;38.760;2023-05-10T08:21:51;2.58;;;1.73;;
77078;SDS011;66004;55.096;38.760;2023-05-10T08:24:18;4.63;;;1.60;;
77078;SDS011;66004;55.096;38.760;2023-05-10T08:26:44;6.07;;;2.40;;
77078;SDS011;66004;55.096;38.760;2023-05-10T08:29:09;6.28;;;2.25;;
77078;SDS011;66004;55.096;38.760;2023-05-10T08:31:35;7.38;;;2.47;;
77078;SDS011;66004;55.096;38.760;2023-05-10T08:34:00;5.47;;;2.20;;
77078;SDS011;66004;55.096;38.760;2023-05-10T08:36:26;4.65;;;2.17;;
77078;SDS011;66004;55.096;38.760;2023-05-10T08:38:53;8.15;;;2.60;;
77078;SDS011;66004;55.096;38.760;2023-05-10T08:41:22;5.40;;;2.50;;
77078;SDS011;66004;55.096;38.760;2023-05-10T08:43:52;7.15;;;2.90;;
77078;SDS011;66004;55.096;38.760;2023-05-10T08:46:20;9.50;;;2.45;;
77078;SDS011;66004;55.096;38.760;2023-05-10T08:52:12;7.75;;;2.63;;
77078;SDS011;66004;55.096;38.760;2023-05-10T08:54:40;5.82;;;2.85;;
77078;SDS011;66004;55.096;38.760;2023-05-10T08:57:06;5.07;;;1.92;;
77078;SDS011;66004;55.096;38.760;2023-05-10T08:59:32;4.45;;;2.00;;
77078;SDS011;66004;55.096;38.760;2023-05-10T09:01:58;4.18;;;1.95;;
77078;SDS011;66004;55.096;38.760;2023-05-10T09:04:24;3.95;;;1.80;;
77078;SDS011;66004;55.096;38.760;2023-05-10T09:06:50;4.50;;;2.10;;
77078;SDS011;66004;55.096;38.760;2023-05-10T09:09:17;5.30;;;2.13;;
77078;SDS011;66004;55.096;38.760;2023-05-10T09:11:43;4.00;;;2.00;;
77078;SDS011;66004;55.096;38.760;2023-05-10T09:14:09;5.80;;;2.15;;
77078;SDS011;66004;55.096;38.760;2023-05-10T09:16:37;6.00;;;1.77;;
77078;SDS011;66004;55.096;38.760;2023-05-10T09:19:03;12.43;;;2.15;;
77078;SDS011;66004;55.096;38.760;2023-05-10T09:21:28;8.05;;;2.60;;
77078;SDS011;66004;55.096;38.760;2023-05-10T09:23:56;4.97;;;2.63;;
77078;SDS011;66004;55.096;38.760;2023-05-10T09:26:22;8.65;;;2.67;;
77078;SDS011;66004;55.096;38.760;2023-05-10T09:31:17;6.55;;;2.95;;
77078;SDS011;66004;55.096;38.760;2023-05-10T09:33:46;6.95;;;2.33;;
77078;SDS011;66004;55.096;38.760;2023-05-10T09:36:12;6.30;;;2.72;;
77078;SDS011;66004;55.096;38.760;2023-05-10T09:38:45;8.50;;;3.50;;
77078;SDS011;66004;55.096;38.760;2023-05-10T09:41:20;6.65;;;2.70;;
77078;SDS011;66004;55.096;38.760;2023-05-10T09:43:47;6.03;;;2.75;;
77078;SDS011;66004;55.096;38.760;2023-05-10T09:46:13;6.25;;;3.13;;
77078;SDS011;66004;55.096;38.760;2023-05-10T09:48:44;5.95;;;3.00;;
77078;SDS011;66004;55.096;38.760;2023-05-10T09:51:20;6.38;;;2.85;;
77078;SDS011;66004;55.096;38.760;2023-05-10T09:53:47;5.63;;;2.50;;
77078;SDS011;66004;55.096;38.760;2023-05-10T09:56:13;3.92;;;2.17;;
77078;SDS011;66004;55.096;38.760;2023-05-10T09:59:03;8.52;;;2.50;;
77078;SDS011;66004;55.096;38.760;2023-05-10T10:01:29;5.03;;;2.30;;
77078;SDS011;66004;55.096;38.760;2023-05-10T10:03:55;6.38;;;2.65;;
77078;SDS011;66004;55.096;38.760;2023-05-10T10:06:22;4.63;;;2.28;;
77078;SDS011;66004;55.096;38.760;2023-05-10T10:08:49;5.63;;;2.08;;
77078;SDS011;66004;55.096;38.760;2023-05-10T10:11:16;4.93;;;2.20;;
77078;SDS011;66004;55.096;38.760;2023-05-10T10:13:42;4.53;;;2.08;;
77078;SDS011;66004;55.096;38.760;2023-05-10T10:16:08;6.18;;;2.28;;
77078;SDS011;66004;55.096;38.760;2023-05-10T10:18:34;4.53;;;2.38;;
77078;SDS011;66004;55.096;38.760;2023-05-10T10:21:04;3.85;;;2.22;;
77078;SDS011;66004;55.096;38.760;2023-05-10T10:23:31;6.97;;;2.63;;
77078;SDS011;66004;55.096;38.760;2023-05-10T10:25:57;3.42;;;1.58;;
77078;SDS011;66004;55.096;38.760;2023-05-10T10:29:26;6.13;;;1.73;;
77078;SDS011;66004;55.096;38.760;2023-05-10T10:34:42;5.05;;;1.85;;
77078;SDS011;66004;55.096;38.760;2023-05-10T10:37:08;3.38;;;1.60;;
77078;SDS011;66004;55.096;38.760;2023-05-10T10:39:33;2.97;;;1.42;;
77078;SDS011;66004;55.096;38.760;2023-05-10T10:42:01;2.13;;;1.40;;
77078;SDS011;66004;55.096;38.760;2023-05-10T10:49:28;5.35;;;1.58;;
77078;SDS011;66004;55.096;38.760;2023-05-10T10:52:15;3.88;;;1.83;;
77078;SDS011;66004;55.096;38.760;2023-05-10T10:54:52;3.55;;;1.55;;
77078;SDS011;66004;55.096;38.760;2023-05-10T10:57:23;3.08;;;1.50;;
77078;SDS011;66004;55.096;38.760;2023-05-10T10:59:48;5.38;;;1.70;;
77078;SDS011;66004;55.096;38.760;2023-05-10T11:02:33;5.78;;;1.40;;
77078;SDS011;66004;55.096;38.760;2023-05-10T11:05:23;2.47;;;1.30;;
77078;SDS011;66004;55.096;38.760;2023-05-10T11:08:00;3.05;;;1.33;;
77078;SDS011;66004;55.096;38.760;2023-05-10T11:10:31;3.28;;;1.90;;
77078;SDS011;66004;55.096;38.760;2023-05-10T11:13:07;3.05;;;1.30;;
77078;SDS011;66004;55.096;38.760;2023-05-10T11:15:34;3.13;;;1.35;;
77078;SDS011;66004;55.096;38.760;2023-05-10T11:18:16;4.50;;;1.80;;
77078;SDS011;66004;55.096;38.760;2023-05-10T11:20:50;5.00;;;1.42;;
77078;SDS011;66004;55.096;38.760;2023-05-10T11:23:17;1.98;;;1.17;;
77078;SDS011;66004;55.096;38.760;2023-05-10T11:25:43;2.80;;;1.23;;
77078;SDS011;66004;55.096;38.760;2023-05-10T11:28:10;5.20;;;1.60;;
77078;SDS011;66004;55.096;38.760;2023-05-10T11:30:39;4.30;;;2.22;;
77078;SDS011;66004;55.096;38.760;2023-05-10T11:33:08;5.47;;;1.80;;
77078;SDS011;66004;55.096;38.760;2023-05-10T11:35:37;3.65;;;1.58;;
77078;SDS011;66004;55.096;38.760;2023-05-10T11:38:07;5.25;;;1.88;;
77078;SDS011;66004;55.096;38.760;2023-05-10T11:40:34;3.10;;;1.48;;
77078;SDS011;66004;55.096;38.760;2023-05-10T11:43:01;2.88;;;1.65;;
77078;SDS011;66004;55.096;38.760;2023-05-10T11:45:28;5.28;;;1.65;;
77078;SDS011;66004;55.096;38.760;2023-05-10T11:47:57;6.38;;;1.73;;
77078;SDS011;66004;55.096;38.760;2023-05-10T11:50:23;2.10;;;1.38;;
77078;SDS011;66004;55.096;38.760;2023-05-10T11:52:52;3.13;;;1.52;;
77078;SDS011;66004;55.096;38.760;2023-05-10T11:55:19;5.35;;;1.75;;
77078;SDS011;66004;55.096;38.760;2023-05-10T11:57:45;5.85;;;1.73;;
77078;SDS011;66004;55.096;38.760;2023-05-10T12:00:11;8.27;;;1.80;;
77078;SDS011;66004;55.096;38.760;2023-05-10T12:02:40;5.10;;;1.90;;
77078;SDS011;66004;55.096;38.760;2023-05-10T12:05:06;6.28;;;1.88;;
77078;SDS011;66004;55.096;38.760;2023-05-10T12:07:32;5.28;;;1.35;;
77078;SDS011;66004;55.096;38.760;2023-05-10T12:10:07;4.90;;;1.60;;
77078;SDS011;66004;55.096;38.760;2023-05-10T12:12:38;6.07;;;1.83;;
77078;SDS011;66004;55.096;38.760;2023-05-10T12:15:09;4.00;;;1.42;;
77078;SDS011;66004;55.096;38.760;2023-05-10T12:17:45;5.30;;;1.45;;
77078;SDS011;66004;55.096;38.760;2023-05-10T12:22:51;3.53;;;1.42;;
77078;SDS011;66004;55.096;38.760;2023-05-10T12:25:21;4.95;;;1.80;;
77078;SDS011;66004;55.096;38.760;2023-05-10T12:27:52;5.18;;;1.45;;
77078;SDS011;66004;55.096;38.760;2023-05-10T12:30:26;4.05;;;1.70;;
77078;SDS011;66004;55.096;38.760;2023-05-10T12:32:54;7.38;;;2.28;;
77078;SDS011;66004;55.096;38.760;2023-05-10T12:35:24;4.60;;;1.65;;
77078;SDS011;66004;55.096;38.760;2023-05-10T12:37:52;5.10;;;1.80;;
77078;SDS011;66004;55.096;38.760;2023-05-10T12:40:18;5.28;;;1.50;;
77078;SDS011;66004;55.096;38.760;2023-05-10T12:42:43;4.63;;;1.50;;
77078;SDS011;66004;55.096;38.760;2023-05-10T12:45:10;4.90;;;1.55;;
77078;SDS011;66004;55.096;38.760;2023-05-10T12:47:36;2.25;;;1.45;;
77078;SDS011;66004;55.096;38.760;2023-05-10T12:50:02;3.80;;;1.65;;
77078;SDS011;66004;55.096;38.760;2023-05-10T12:52:29;3.40;;;1.60;;
77078;SDS011;66004;55.096;38.760;2023-05-10T12:54:57;8.10;;;1.88;;
77078;SDS011;66004;55.096;38.760;2023-05-10T12:57:23;2.72;;;1.63;;
77078;SDS011;66004;55.096;38.760;2023-05-10T12:59:48;4.50;;;1.67;;
77078;SDS011;66004;55.096;38.760;2023-05-10T13:02:14;2.70;;;1.30;;
77078;SDS011;66004;55.096;38.760;2023-05-10T13:04:40;4.72;;;1.40;;
77078;SDS011;66004;55.096;38.760;2023-05-10T13:07:07;2.47;;;1.40;;
77078;SDS011;66004;55.096;38.760;2023-05-10T13:09:32;4.22;;;1.50;;
77078;SDS011;66004;55.096;38.760;2023-05-10T13:11:58;3.38;;;1.63;;
77078;SDS011;66004;55.096;38.760;2023-05-10T13:14:23;2.10;;;1.10;;
77078;SDS011;66004;55.096;38.760;2023-05-10T13:16:49;4.43;;;1.45;;
77078;SDS011;66004;55.096;38.760;2023-05-10T13:19:15;9.70;;;1.98;;
77078;SDS011;66004;55.096;38.760;2023-05-10T13:21:41;5.15;;;1.55;;
77078;SDS011;66004;55.096;38.760;2023-05-10T13:24:07;3.28;;;1.85;;
77078;SDS011;66004;55.096;38.760;2023-05-10T13:26:33;5.15;;;1.77;;
77078;SDS011;66004;55.096;38.760;2023-05-10T13:28:58;3.15;;;1.60;;
77078;SDS011;66004;55.096;38.760;2023-05-10T13:31:24;6.63;;;1.75;;
77078;SDS011;66004;55.096;38.760;2023-05-10T13:33:50;5.05;;;1.30;;
77078;SDS011;66004;55.096;38.760;2023-05-10T13:36:16;3.13;;;1.40;;
77078;SDS011;66004;55.096;38.760;2023-05-10T13:38:42;2.30;;;1.50;;
77078;SDS011;66004;55.096;38.760;2023-05-10T13:41:07;3.08;;;1.60;;
77078;SDS011;66004;55.096;38.760;2023-05-10T13:43:33;2.97;;;1.63;;
77078;SDS011;66004;55.096;38.760;2023-05-10T13:45:58;3.22;;;1.60;;
77078;SDS011;66004;55.096;38.760;2023-05-10T13:48:24;3.35;;;1.60;;
77078;SDS011;66004;55.096;38.760;2023-05-10T13:50:50;3.58;;;1.60;;
77078;SDS011;66004;55.096;38.760;2023-05-10T13:53:15;4.20;;;1.50;;
77078;SDS011;66004;55.096;38.760;2023-05-10T13:55:41;2.38;;;1.40;;
77078;SDS011;66004;55.096;38.760;2023-05-10T13:58:06;3.92;;;1.30;;
77078;SDS011;66004;55.096;38.760;2023-05-10T14:00:32;3.70;;;1.27;;
77078;SDS011;66004;55.096;38.760;2023-05-10T14:02:57;4.40;;;1.40;;
77078;SDS011;66004;55.096;38.760;2023-05-10T14:05:23;3.72;;;1.35;;
77078;SDS011;66004;55.096;38.760;2023-05-10T14:07:49;3.33;;;1.20;;
77078;SDS011;66004;55.096;38.760;2023-05-10T14:10:15;4.30;;;1.65;;
77078;SDS011;66004;55.096;38.760;2023-05-10T14:12:40;3.47;;;1.25;;
77078;SDS011;66004;55.096;38.760;2023-05-10T14:15:06;2.70;;;1.30;;
77078;SDS011;66004;55.096;38.760;2023-05-10T14:17:32;4.78;;;1.60;;
77078;SDS011;66004;55.096;38.760;2023-05-10T14:19:58;3.38;;;1.40;;
77078;SDS011;66004;55.096;38.760;2023-05-10T14:22:23;3.33;;;1.58;;
77078;SDS011;66004;55.096;38.760;2023-05-10T14:24:49;7.00;;;1.70;;
77078;SDS011;66004;55.096;38.760;2023-05-10T14:27:15;2.72;;;1.40;;
77078;SDS011;66004;55.096;38.760;2023-05-10T14:29:41;2.33;;;1.50;;
77078;SDS011;66004;55.096;38.760;2023-05-10T14:32:06;5.28;;;1.90;;
77078;SDS011;66004;55.096;38.760;2023-05-10T14:34:32;7.80;;;1.90;;
77078;SDS011;66004;55.096;38.760;2023-05-10T14:36:58;4.10;;;1.60;;
77078;SDS011;66004;55.096;38.760;2023-05-10T14:39:23;3.75;;;2.00;;
77078;SDS011;66004;55.096;38.760;2023-05-10T14:41:49;4.72;;;2.13;;
77078;SDS011;66004;55.096;38.760;2023-05-10T14:44:16;5.00;;;1.80;;
77078;SDS011;66004;55.096;38.760;2023-05-10T14:46:41;4.65;;;1.58;;
77078;SDS011;66004;55.096;38.760;2023-05-10T14:52:14;4.68;;;1.90;;
77078;SDS011;66004;55.096;38.760;2023-05-10T14:54:40;4.05;;;2.03;;
77078;SDS011;66004;55.096;38.760;2023-05-10T14:57:06;4.20;;;1.58;;
77078;SDS011;66004;55.096;38.760;2023-05-10T14:59:31;2.45;;;1.73;;
77078;SDS011;66004;55.096;38.760;2023-05-10T15:01:57;2.53;;;1.42;;
77078;SDS011;66004;55.096;38.760;2023-05-10T15:04:23;3.55;;;1.70;;
77078;SDS011;66004;55.096;38.760;2023-05-10T15:06:48;4.20;;;1.70;;
77078;SDS011;66004;55.096;38.760;2023-05-10T15:09:14;3.22;;;1.70;;
77078;SDS011;66004;55.096;38.760;2023-05-10T15:11:40;2.90;;;1.58;;
77078;SDS011;66004;55.096;38.760;2023-05-10T15:14:06;7.03;;;1.77;;
77078;SDS011;66004;55.096;38.760;2023-05-10T15:16:31;7.78;;;2.08;;
77078;SDS011;66004;55.096;38.760;2023-05-10T15:18:57;8.70;;;1.80;;
77078;SDS011;66004;55.096;38.760;2023-05-10T15:21:22;7.82;;;1.80;;
77078;SDS011;66004;55.096;38.760;2023-05-10T15:23:48;3.53;;;1.38;;
77078;SDS011;66004;55.096;38.760;2023-05-10T15:26:13;4.43;;;1.73;;
77078;SDS011;66004;55.096;38.760;2023-05-10T15:28:39;1.90;;;1.35;;
77078;SDS011;66004;55.096;38.760;2023-05-10T15:31:04;3.78;;;1.48;;
77078;SDS011;66004;55.096;38.760;2023-05-10T15:33:30;5.13;;;1.70;;
77078;SDS011;66004;55.096;38.760;2023-05-10T15:35:55;3.42;;;1.40;;
77078;SDS011;66004;55.096;38.760;2023-05-10T15:38:21;5.13;;;1.70;;